sensor_id;sensor_type;location;lat;lon;timestamp;temperature;humidity
19968;DHT22;10145;49.152;9.282;2023-05-10T00:00:51;13.90;99.90
19968;DHT22;10145;49.152;9.282;2023-05-10T00:03:16;13.90;99.90
19968;DHT22;10145;49.152;9.282;2023-05-10T00:05:42;13.70;99.90
19968;DHT22;10145;49.152;9.282;2023-05-10T00:08:08;13.50;99.90
19968;DHT22;10145;49.152;9.282;2023-05-10T00:10:33;13.50;99.90
19968;DHT22;10145;49.152;9.282;2023-05-10T00:12:59;13.40;99.90
19968;DHT22;10145;49.152;9.282;2023-05-10T00:15:25;13.30;99.90
19968;DHT22;10145;49.152;9.282;2023-05-10T00:17:50;13.30;99.90
19968;DHT22;10145;49.152;9.282;2023-05-10T00:20:16;13.20;99.90
19968;DHT22;10145;49.152;9.282;2023-05-10T00:22:41;13.20;99.90
19968;DHT22;10145;49.152;9.282;2023-05-10T00:25:08;13.20;99.90
19968;DHT22;10145;49.152;9.282;2023-05-10T00:27:33;13.20;99.90
19968;DHT22;10145;49.152;9.282;2023-05-10T00:29:59;13.20;99.90
19968;DHT22;10145;49.152;9.282;2023-05-10T00:32:24;13.20;99.90
19968;DHT22;10145;49.152;9.282;2023-05-10T00:34:50;13.20;99.90
19968;DHT22;10145;49.152;9.282;2023-05-10T00:37:16;13.10;99.90
19968;DHT22;10145;49.152;9.282;2023-05-10T00:39:41;13.10;99.90
19968;DHT22;10145;49.152;9.282;2023-05-10T00:42:07;13.20;99.90
19968;DHT22;10145;49.152;9.282;2023-05-10T00:44:32;13.20;99.90
19968;DHT22;10145;49.152;9.282;2023-05-10T00:46:59;13.20;99.90
19968;DHT22;10145;49.152;9.282;2023-05-10T00:49:25;13.20;99.90
19968;DHT22;10145;49.152;9.282;2023-05-10T00:51:50;13.20;99.90
19968;DHT22;10145;49.152;9.282;2023-05-10T00:54:16;13.30;99.90
19968;DHT22;10145;49.152;9.282;2023-05-10T00:56:42;13.20;99.90
19968;DHT22;10145;49.152;9.282;2023-05-10T00:59:14;13.30;99.90
19968;DHT22;10145;49.152;9.282;2023-05-10T01:01:40;13.20;99.90
19968;DHT22;10145;49.152;9.282;2023-05-10T01:04:05;13.20;99.90
19968;DHT22;10145;49.152;9.282;2023-05-10T01:06:31;13.20;99.90
19968;DHT22;10145;49.152;9.282;2023-05-10T01:08:57;13.10;99.90
19968;DHT22;10145;49.152;9.282;2023-05-10T01:11:23;13.10;99.90
19968;DHT22;10145;49.152;9.282;2023-05-10T01:13:55;13.10;99.90
19968;DHT22;10145;49.152;9.282;2023-05-10T01:16:22;13.10;99.90
19968;DHT22;10145;49.152;9.282;2023-05-10T01:18:49;13.00;99.90
19968;DHT22;10145;49.152;9.282;2023-05-10T01:32:52;12.80;99.90
19968;DHT22;10145;49.152;9.282;2023-05-10T01:35:30;12.80;99.90
19968;DHT22;10145;49.152;9.282;2023-05-10T01:38:50;12.80;99.90
19968;DHT22;10145;49.152;9.282;2023-05-10T01:41:18;12.70;99.90
19968;DHT22;10145;49.152;9.282;2023-05-10T01:43:54;12.70;99.90
19968;DHT22;10145;49.152;9.282;2023-05-10T01:46:28;12.70;99.90
19968;DHT22;10145;49.152;9.282;2023-05-10T01:49:00;12.70;99.90
19968;DHT22;10145;49.152;9.282;2023-05-10T01:51:31;12.70;99.90
19968;DHT22;10145;49.152;9.282;2023-05-10T01:54:01;12.70;99.90
19968;DHT22;10145;49.152;9.282;2023-05-10T01:56:30;12.70;99.90
19968;DHT22;10145;49.152;9.282;2023-05-10T01:58:56;12.70;99.90
19968;DHT22;10145;49.152;9.282;2023-05-10T02:01:23;12.70;99.90
19968;DHT22;10145;49.152;9.282;2023-05-10T02:03:51;12.70;99.90
19968;DHT22;10145;49.152;9.282;2023-05-10T02:06:20;12.60;99.90
19968;DHT22;10145;49.152;9.282;2023-05-10T02:08:47;12.60;99.90
19968;DHT22;10145;49.152;9.282;2023-05-10T02:11:14;12.60;99.90
19968;DHT22;10145;49.152;9.282;2023-05-10T02:13:41;12.60;99.90
19968;DHT22;10145;49.152;9.282;2023-05-10T02:16:07;12.60;99.90
19968;DHT22;10145;49.152;9.282;2023-05-10T02:18:34;12.50;99.90
19968;DHT22;10145;49.152;9.282;2023-05-10T02:21:02;12.60;99.90
19968;DHT22;10145;49.152;9.282;2023-05-10T02:23:28;12.50;99.90
19968;DHT22;10145;49.152;9.282;2023-05-10T02:25:55;12.50;99.90
19968;DHT22;10145;49.152;9.282;2023-05-10T02:28:23;12.60;99.90
19968;DHT22;10145;49.152;9.282;2023-05-10T02:30:51;12.50;99.90
19968;DHT22;10145;49.152;9.282;2023-05-10T02:33:18;12.50;99.90
19968;DHT22;10145;49.152;9.282;2023-05-10T02:35:43;12.50;99.90
19968;DHT22;10145;49.152;9.282;2023-05-10T02:38:10;12.50;99.90
19968;DHT22;10145;49.152;9.282;2023-05-10T02:40:37;12.50;99.90
19968;DHT22;10145;49.152;9.282;2023-05-10T02:43:04;12.50;99.90
19968;DHT22;10145;49.152;9.282;2023-05-10T02:45:31;12.50;99.90
19968;DHT22;10145;49.152;9.282;2023-05-10T02:47:58;12.60;99.90
19968;DHT22;10145;49.152;9.282;2023-05-10T02:50:26;12.60;99.90
19968;DHT22;10145;49.152;9.282;2023-05-10T02:52:56;12.50;99.90
19968;DHT22;10145;49.152;9.282;2023-05-10T02:55:27;12.60;99.90
19968;DHT22;10145;49.152;9.282;2023-05-10T02:58:00;12.60;99.90
19968;DHT22;10145;49.152;9.282;2023-05-10T03:00:26;12.60;99.90
19968;DHT22;10145;49.152;9.282;2023-05-10T03:02:52;12.60;99.90
19968;DHT22;10145;49.152;9.282;2023-05-10T03:05:17;12.60;99.90
19968;DHT22;10145;49.152;9.282;2023-05-10T03:07:44;12.50;99.90
19968;DHT22;10145;49.152;9.282;2023-05-10T03:10:10;12.40;99.90
19968;DHT22;10145;49.152;9.282;2023-05-10T03:15:32;12.50;99.90
19968;DHT22;10145;49.152;9.282;2023-05-10T03:20:35;12.50;99.90
19968;DHT22;10145;49.152;9.282;2023-05-10T03:25:40;12.50;99.90
19968;DHT22;10145;49.152;9.282;2023-05-10T03:28:06;12.50;99.90
19968;DHT22;10145;49.152;9.282;2023-05-10T03:30:33;12.60;99.90
19968;DHT22;10145;49.152;9.282;2023-05-10T03:33:07;12.60;99.90
19968;DHT22;10145;49.152;9.282;2023-05-10T03:35:32;12.60;99.90
19968;DHT22;10145;49.152;9.282;2023-05-10T03:37:58;12.60;99.90
19968;DHT22;10145;49.152;9.282;2023-05-10T03:40:25;12.70;99.90
19968;DHT22;10145;49.152;9.282;2023-05-10T03:42:51;12.70;99.90
19968;DHT22;10145;49.152;9.282;2023-05-10T03:45:16;12.70;99.90
19968;DHT22;10145;49.152;9.282;2023-05-10T03:47:42;12.70;99.90
19968;DHT22;10145;49.152;9.282;2023-05-10T03:50:07;12.60;99.90
19968;DHT22;10145;49.152;9.282;2023-05-10T03:52:33;12.60;99.90
19968;DHT22;10145;49.152;9.282;2023-05-10T03:54:59;12.60;99.90
19968;DHT22;10145;49.152;9.282;2023-05-10T03:57:24;12.60;99.90
19968;DHT22;10145;49.152;9.282;2023-05-10T03:59:50;12.60;99.90
19968;DHT22;10145;49.152;9.282;2023-05-10T04:02:15;12.60;99.90
19968;DHT22;10145;49.152;9.282;2023-05-10T04:04:41;12.60;99.90
19968;DHT22;10145;49.152;9.282;2023-05-10T04:07:07;12.50;99.90
19968;DHT22;10145;49.152;9.282;2023-05-10T04:09:33;12.60;99.90
19968;DHT22;10145;49.152;9.282;2023-05-10T04:11:59;12.60;99.90
19968;DHT22;10145;49.152;9.282;2023-05-10T04:14:25;12.60;99.90
19968;DHT22;10145;49.152;9.282;2023-05-10T04:16:51;12.60;99.90
19968;DHT22;10145;49.152;9.282;2023-05-10T04:19:16;12.60;99.90
19968;DHT22;10145;49.152;9.282;2023-05-10T04:21:42;12.60;99.90
19968;DHT22;10145;49.152;9.282;2023-05-10T04:24:08;12.60;99.90
19968;DHT22;10145;49.152;9.282;2023-05-10T04:26:33;12.60;99.90
19968;DHT22;10145;49.152;9.282;2023-05-10T04:28:58;12.70;99.90
19968;DHT22;10145;49.152;9.282;2023-05-10T04:31:24;12.70;99.90
19968;DHT22;10145;49.152;9.282;2023-05-10T04:33:50;12.70;99.90
19968;DHT22;10145;49.152;9.282;2023-05-10T04:36:15;12.70;99.90
19968;DHT22;10145;49.152;9.282;2023-05-10T04:38:41;12.70;99.90
19968;DHT22;10145;49.152;9.282;2023-05-10T04:41:09;12.70;99.90
19968;DHT22;10145;49.152;9.282;2023-05-10T04:43:35;12.70;99.90
19968;DHT22;10145;49.152;9.282;2023-05-10T04:46:01;12.80;99.90
19968;DHT22;10145;49.152;9.282;2023-05-10T04:48:26;12.80;99.90
19968;DHT22;10145;49.152;9.282;2023-05-10T04:50:52;12.80;99.90
19968;DHT22;10145;49.152;9.282;2023-05-10T04:53:18;12.80;99.90
19968;DHT22;10145;49.152;9.282;2023-05-10T04:55:43;12.80;99.90
19968;DHT22;10145;49.152;9.282;2023-05-10T04:58:09;12.90;99.90
19968;DHT22;10145;49.152;9.282;2023-05-10T05:00:34;12.90;99.90
19968;DHT22;10145;49.152;9.282;2023-05-10T05:03:00;12.90;99.90
19968;DHT22;10145;49.152;9.282;2023-05-10T05:05:26;12.80;99.90
19968;DHT22;10145;49.152;9.282;2023-05-10T05:07:51;12.90;99.90
19968;DHT22;10145;49.152;9.282;2023-05-10T05:10:17;12.90;99.90
19968;DHT22;10145;49.152;9.282;2023-05-10T05:12:43;13.00;99.90
19968;DHT22;10145;49.152;9.282;2023-05-10T05:15:08;13.00;99.90
19968;DHT22;10145;49.152;9.282;2023-05-10T05:17:37;13.00;99.90
19968;DHT22;10145;49.152;9.282;2023-05-10T05:20:02;13.10;99.90
19968;DHT22;10145;49.152;9.282;2023-05-10T05:22:28;13.10;99.90
19968;DHT22;10145;49.152;9.282;2023-05-10T05:24:54;13.20;99.90
19968;DHT22;10145;49.152;9.282;2023-05-10T05:27:20;13.20;99.90
19968;DHT22;10145;49.152;9.282;2023-05-10T05:29:52;13.30;99.90
19968;DHT22;10145;49.152;9.282;2023-05-10T05:32:17;13.30;99.90
19968;DHT22;10145;49.152;9.282;2023-05-10T05:34:46;13.40;99.90
19968;DHT22;10145;49.152;9.282;2023-05-10T05:37:13;13.40;99.90
19968;DHT22;10145;49.152;9.282;2023-05-10T05:39:39;13.40;99.90
19968;DHT22;10145;49.152;9.282;2023-05-10T05:42:05;13.40;99.90
19968;DHT22;10145;49.152;9.282;2023-05-10T05:44:30;13.50;99.90
19968;DHT22;10145;49.152;9.282;2023-05-10T05:46:56;13.70;99.90
19968;DHT22;10145;49.152;9.282;2023-05-10T05:49:21;13.90;99.90
19968;DHT22;10145;49.152;9.282;2023-05-10T05:51:47;14.00;99.90
19968;DHT22;10145;49.152;9.282;2023-05-10T05:54:15;14.00;99.90
19968;DHT22;10145;49.152;9.282;2023-05-10T05:56:40;14.20;99.90
19968;DHT22;10145;49.152;9.282;2023-05-10T05:59:06;14.20;99.90
19968;DHT22;10145;49.152;9.282;2023-05-10T06:01:31;14.20;99.90
19968;DHT22;10145;49.152;9.282;2023-05-10T06:03:57;14.20;99.90
19968;DHT22;10145;49.152;9.282;2023-05-10T06:06:22;14.20;99.90
19968;DHT22;10145;49.152;9.282;2023-05-10T06:08:48;14.20;99.90
19968;DHT22;10145;49.152;9.282;2023-05-10T06:11:13;14.20;99.90
19968;DHT22;10145;49.152;9.282;2023-05-10T06:13:39;14.30;99.90
19968;DHT22;10145;49.152;9.282;2023-05-10T06:16:05;14.40;99.90
19968;DHT22;10145;49.152;9.282;2023-05-10T06:18:30;14.40;99.90
19968;DHT22;10145;49.152;9.282;2023-05-10T06:20:56;14.60;99.90
19968;DHT22;10145;49.152;9.282;2023-05-10T06:23:22;14.70;99.90
19968;DHT22;10145;49.152;9.282;2023-05-10T06:25:48;14.80;99.90
19968;DHT22;10145;49.152;9.282;2023-05-10T06:28:13;14.90;99.90
19968;DHT22;10145;49.152;9.282;2023-05-10T06:30:39;15.00;99.90
19968;DHT22;10145;49.152;9.282;2023-05-10T06:33:04;15.10;99.90
19968;DHT22;10145;49.152;9.282;2023-05-10T06:35:30;15.10;99.90
19968;DHT22;10145;49.152;9.282;2023-05-10T06:37:58;15.20;99.90
19968;DHT22;10145;49.152;9.282;2023-05-10T06:40:24;15.10;99.90
19968;DHT22;10145;49.152;9.282;2023-05-10T06:42:50;15.20;99.90
19968;DHT22;10145;49.152;9.282;2023-05-10T06:45:15;15.30;99.90
19968;DHT22;10145;49.152;9.282;2023-05-10T06:47:41;15.30;99.90
19968;DHT22;10145;49.152;9.282;2023-05-10T06:50:08;15.30;99.90
19968;DHT22;10145;49.152;9.282;2023-05-10T06:52:34;15.20;99.90
19968;DHT22;10145;49.152;9.282;2023-05-10T06:54:59;15.00;99.90
19968;DHT22;10145;49.152;9.282;2023-05-10T06:57:25;15.00;99.90
19968;DHT22;10145;49.152;9.282;2023-05-10T06:59:51;14.90;99.90
19968;DHT22;10145;49.152;9.282;2023-05-10T07:02:17;15.00;99.90
19968;DHT22;10145;49.152;9.282;2023-05-10T07:04:43;15.00;99.90
19968;DHT22;10145;49.152;9.282;2023-05-10T07:07:08;15.00;99.90
19968;DHT22;10145;49.152;9.282;2023-05-10T07:09:34;15.20;99.90
19968;DHT22;10145;49.152;9.282;2023-05-10T07:11:59;15.10;99.90
19968;DHT22;10145;49.152;9.282;2023-05-10T07:14:25;15.30;99.90
19968;DHT22;10145;49.152;9.282;2023-05-10T07:16:50;15.30;99.90
19968;DHT22;10145;49.152;9.282;2023-05-10T07:19:16;15.40;99.90
19968;DHT22;10145;49.152;9.282;2023-05-10T07:21:41;15.20;99.90
19968;DHT22;10145;49.152;9.282;2023-05-10T07:24:08;15.20;99.90
19968;DHT22;10145;49.152;9.282;2023-05-10T07:26:34;15.30;99.90
19968;DHT22;10145;49.152;9.282;2023-05-10T07:28:59;15.30;99.90
19968;DHT22;10145;49.152;9.282;2023-05-10T07:31:25;15.30;99.90
19968;DHT22;10145;49.152;9.282;2023-05-10T07:33:50;15.30;99.90
19968;DHT22;10145;49.152;9.282;2023-05-10T07:36:16;15.40;99.90
19968;DHT22;10145;49.152;9.282;2023-05-10T07:38:42;15.40;99.90
19968;DHT22;10145;49.152;9.282;2023-05-10T07:41:07;15.50;99.90
19968;DHT22;10145;49.152;9.282;2023-05-10T07:43:33;15.30;99.90
19968;DHT22;10145;49.152;9.282;2023-05-10T07:45:58;15.40;99.90
19968;DHT22;10145;49.152;9.282;2023-05-10T07:48:25;15.50;99.90
19968;DHT22;10145;49.152;9.282;2023-05-10T07:50:51;15.50;99.90
19968;DHT22;10145;49.152;9.282;2023-05-10T07:53:16;15.40;99.90
19968;DHT22;10145;49.152;9.282;2023-05-10T07:55:44;15.60;99.90
19968;DHT22;10145;49.152;9.282;2023-05-10T07:58:10;15.50;99.90
19968;DHT22;10145;49.152;9.282;2023-05-10T08:00:35;15.40;99.90
19968;DHT22;10145;49.152;9.282;2023-05-10T08:03:04;15.40;99.90
19968;DHT22;10145;49.152;9.282;2023-05-10T08:05:30;15.70;99.90
19968;DHT22;10145;49.152;9.282;2023-05-10T08:07:55;15.90;99.90
19968;DHT22;10145;49.152;9.282;2023-05-10T08:10:21;16.00;99.90
19968;DHT22;10145;49.152;9.282;2023-05-10T08:12:46;16.20;99.90
19968;DHT22;10145;49.152;9.282;2023-05-10T08:15:12;16.30;99.90
19968;DHT22;10145;49.152;9.282;2023-05-10T08:17:37;16.30;99.90
19968;DHT22;10145;49.152;9.282;2023-05-10T08:20:03;16.40;99.90
19968;DHT22;10145;49.152;9.282;2023-05-10T08:22:28;16.30;99.90
19968;DHT22;10145;49.152;9.282;2023-05-10T08:24:54;16.20;99.90
19968;DHT22;10145;49.152;9.282;2023-05-10T08:27:19;16.10;99.90
19968;DHT22;10145;49.152;9.282;2023-05-10T08:29:45;16.10;99.90
19968;DHT22;10145;49.152;9.282;2023-05-10T08:32:10;16.40;99.90
19968;DHT22;10145;49.152;9.282;2023-05-10T08:34:36;16.50;99.90
19968;DHT22;10145;49.152;9.282;2023-05-10T08:37:01;16.50;99.90
19968;DHT22;10145;49.152;9.282;2023-05-10T08:39:27;16.50;99.90
19968;DHT22;10145;49.152;9.282;2023-05-10T08:41:54;16.30;99.90
19968;DHT22;10145;49.152;9.282;2023-05-10T08:44:24;16.20;99.90
19968;DHT22;10145;49.152;9.282;2023-05-10T08:46:51;16.00;99.90
19968;DHT22;10145;49.152;9.282;2023-05-10T08:49:20;16.20;99.90
19968;DHT22;10145;49.152;9.282;2023-05-10T08:51:50;16.30;99.90
19968;DHT22;10145;49.152;9.282;2023-05-10T08:54:17;16.40;99.90
19968;DHT22;10145;49.152;9.282;2023-05-10T08:56:43;16.40;99.90
19968;DHT22;10145;49.152;9.282;2023-05-10T08:59:08;16.60;99.90
19968;DHT22;10145;49.152;9.282;2023-05-10T09:01:35;16.60;99.90
19968;DHT22;10145;49.152;9.282;2023-05-10T09:04:02;16.20;99.90
19968;DHT22;10145;49.152;9.282;2023-05-10T09:06:29;16.20;99.90
19968;DHT22;10145;49.152;9.282;2023-05-10T09:08:55;16.30;99.90
19968;DHT22;10145;49.152;9.282;2023-05-10T09:11:21;16.40;99.90
19968;DHT22;10145;49.152;9.282;2023-05-10T09:13:48;16.80;99.90
19968;DHT22;10145;49.152;9.282;2023-05-10T09:16:16;17.10;99.90
19968;DHT22;10145;49.152;9.282;2023-05-10T09:18:41;17.30;99.90
19968;DHT22;10145;49.152;9.282;2023-05-10T09:21:07;17.30;99.90
19968;DHT22;10145;49.152;9.282;2023-05-10T09:23:33;17.60;99.90
19968;DHT22;10145;49.152;9.282;2023-05-10T09:26:03;18.00;99.90
19968;DHT22;10145;49.152;9.282;2023-05-10T09:28:54;18.10;99.90
19968;DHT22;10145;49.152;9.282;2023-05-10T09:31:20;18.00;99.90
19968;DHT22;10145;49.152;9.282;2023-05-10T09:33:47;18.30;99.90
19968;DHT22;10145;49.152;9.282;2023-05-10T09:36:13;18.30;99.90
19968;DHT22;10145;49.152;9.282;2023-05-10T09:38:46;18.30;99.90
19968;DHT22;10145;49.152;9.282;2023-05-10T09:41:21;18.30;99.90
19968;DHT22;10145;49.152;9.282;2023-05-10T09:43:47;18.30;99.90
19968;DHT22;10145;49.152;9.282;2023-05-10T09:46:13;18.50;99.90
19968;DHT22;10145;49.152;9.282;2023-05-10T09:48:47;18.40;99.90
19968;DHT22;10145;49.152;9.282;2023-05-10T09:51:25;18.40;99.90
19968;DHT22;10145;49.152;9.282;2023-05-10T09:54:15;18.40;99.90
19968;DHT22;10145;49.152;9.282;2023-05-10T09:56:41;18.00;99.90
19968;DHT22;10145;49.152;9.282;2023-05-10T09:59:11;18.10;99.90
19968;DHT22;10145;49.152;9.282;2023-05-10T10:01:38;18.20;99.90
19968;DHT22;10145;49.152;9.282;2023-05-10T10:04:05;18.50;99.90
19968;DHT22;10145;49.152;9.282;2023-05-10T10:06:36;18.50;99.90
19968;DHT22;10145;49.152;9.282;2023-05-10T10:09:02;18.70;99.90
19968;DHT22;10145;49.152;9.282;2023-05-10T10:11:28;18.70;99.90
19968;DHT22;10145;49.152;9.282;2023-05-10T10:13:54;18.70;99.90
19968;DHT22;10145;49.152;9.282;2023-05-10T10:16:20;19.00;99.90
19968;DHT22;10145;49.152;9.282;2023-05-10T10:18:47;19.10;99.90
19968;DHT22;10145;49.152;9.282;2023-05-10T10:21:13;19.30;99.90
19968;DHT22;10145;49.152;9.282;2023-05-10T10:23:40;19.50;99.90
19968;DHT22;10145;49.152;9.282;2023-05-10T10:26:06;19.80;99.90
19968;DHT22;10145;49.152;9.282;2023-05-10T10:28:41;19.80;99.90
19968;DHT22;10145;49.152;9.282;2023-05-10T10:31:39;19.70;99.90
19968;DHT22;10145;49.152;9.282;2023-05-10T10:34:07;19.70;99.90
19968;DHT22;10145;49.152;9.282;2023-05-10T10:36:44;19.50;99.90
19968;DHT22;10145;49.152;9.282;2023-05-10T10:39:10;19.10;99.90
19968;DHT22;10145;49.152;9.282;2023-05-10T10:41:38;19.00;99.90
19968;DHT22;10145;49.152;9.282;2023-05-10T10:44:24;19.00;99.90
19968;DHT22;10145;49.152;9.282;2023-05-10T10:52:27;19.30;99.90
19968;DHT22;10145;49.152;9.282;2023-05-10T10:55:14;19.20;99.90
19968;DHT22;10145;49.152;9.282;2023-05-10T11:00:25;19.10;99.90
19968;DHT22;10145;49.152;9.282;2023-05-10T11:05:23;19.90;99.90
19968;DHT22;10145;49.152;9.282;2023-05-10T11:07:57;19.60;99.90
19968;DHT22;10145;49.152;9.282;2023-05-10T11:10:24;20.00;99.90
19968;DHT22;10145;49.152;9.282;2023-05-10T11:13:00;20.20;99.90
19968;DHT22;10145;49.152;9.282;2023-05-10T11:17:59;19.70;99.90
19968;DHT22;10145;49.152;9.282;2023-05-10T11:20:28;20.10;99.90
19968;DHT22;10145;49.152;9.282;2023-05-10T11:23:13;20.50;99.90
19968;DHT22;10145;49.152;9.282;2023-05-10T11:25:45;20.20;99.90
19968;DHT22;10145;49.152;9.282;2023-05-10T11:28:14;20.40;99.90
19968;DHT22;10145;49.152;9.282;2023-05-10T11:30:41;20.30;99.90
19968;DHT22;10145;49.152;9.282;2023-05-10T11:33:07;20.20;99.90
19968;DHT22;10145;49.152;9.282;2023-05-10T11:35:38;20.50;99.90
19968;DHT22;10145;49.152;9.282;2023-05-10T11:38:08;21.10;99.90
19968;DHT22;10145;49.152;9.282;2023-05-10T11:40:35;20.90;99.90
19968;DHT22;10145;49.152;9.282;2023-05-10T11:43:01;21.00;99.90
19968;DHT22;10145;49.152;9.282;2023-05-10T11:45:27;20.50;99.90
19968;DHT22;10145;49.152;9.282;2023-05-10T11:47:54;20.40;99.90
19968;DHT22;10145;49.152;9.282;2023-05-10T11:50:20;20.30;99.90
19968;DHT22;10145;49.152;9.282;2023-05-10T11:52:50;19.70;98.90
19968;DHT22;10145;49.152;9.282;2023-05-10T11:55:16;19.00;98.40
19968;DHT22;10145;49.152;9.282;2023-05-10T11:57:42;18.80;99.90
19968;DHT22;10145;49.152;9.282;2023-05-10T12:00:10;18.60;99.90
19968;DHT22;10145;49.152;9.282;2023-05-10T12:02:36;18.70;99.90
19968;DHT22;10145;49.152;9.282;2023-05-10T12:05:03;18.50;99.90
19968;DHT22;10145;49.152;9.282;2023-05-10T12:07:29;18.70;99.90
19968;DHT22;10145;49.152;9.282;2023-05-10T12:10:07;18.50;99.90
19968;DHT22;10145;49.152;9.282;2023-05-10T12:12:44;18.70;99.90
19968;DHT22;10145;49.152;9.282;2023-05-10T12:15:12;18.70;99.90
19968;DHT22;10145;49.152;9.282;2023-05-10T12:17:38;18.80;99.90
19968;DHT22;10145;49.152;9.282;2023-05-10T12:20:18;18.80;99.90
19968;DHT22;10145;49.152;9.282;2023-05-10T12:22:51;18.90;99.90
19968;DHT22;10145;49.152;9.282;2023-05-10T12:25:18;19.00;99.90
19968;DHT22;10145;49.152;9.282;2023-05-10T12:27:54;19.30;99.90
19968;DHT22;10145;49.152;9.282;2023-05-10T12:30:25;19.30;99.90
19968;DHT22;10145;49.152;9.282;2023-05-10T12:32:52;19.30;99.90
19968;DHT22;10145;49.152;9.282;2023-05-10T12:35:18;18.90;99.90
19968;DHT22;10145;49.152;9.282;2023-05-10T12:37:47;18.60;99.90
19968;DHT22;10145;49.152;9.282;2023-05-10T12:40:13;17.90;99.90
19968;DHT22;10145;49.152;9.282;2023-05-10T12:42:39;17.70;99.90
19968;DHT22;10145;49.152;9.282;2023-05-10T12:45:06;17.90;99.90
19968;DHT22;10145;49.152;9.282;2023-05-10T12:47:33;18.10;99.90
19968;DHT22;10145;49.152;9.282;2023-05-10T12:50:00;18.20;99.90
19968;DHT22;10145;49.152;9.282;2023-05-10T12:52:26;17.90;99.90
19968;DHT22;10145;49.152;9.282;2023-05-10T12:54:52;18.10;99.90
19968;DHT22;10145;49.152;9.282;2023-05-10T12:57:19;18.10;99.90
19968;DHT22;10145;49.152;9.282;2023-05-10T12:59:45;17.90;99.90
19968;DHT22;10145;49.152;9.282;2023-05-10T13:02:10;18.00;99.90
19968;DHT22;10145;49.152;9.282;2023-05-10T13:04:36;18.00;99.90
19968;DHT22;10145;49.152;9.282;2023-05-10T13:07:05;18.30;99.90
19968;DHT22;10145;49.152;9.282;2023-05-10T13:09:31;18.80;99.90
19968;DHT22;10145;49.152;9.282;2023-05-10T13:11:56;19.30;99.90
19968;DHT22;10145;49.152;9.282;2023-05-10T13:14:22;19.60;99.90
19968;DHT22;10145;49.152;9.282;2023-05-10T13:16:48;19.30;99.50
19968;DHT22;10145;49.152;9.282;2023-05-10T13:19:14;19.20;99.90
19968;DHT22;10145;49.152;9.282;2023-05-10T13:21:39;19.00;99.90
19968;DHT22;10145;49.152;9.282;2023-05-10T13:24:06;18.60;99.90
19968;DHT22;10145;49.152;9.282;2023-05-10T13:26:32;18.70;99.90
19968;DHT22;10145;49.152;9.282;2023-05-10T13:28:58;18.80;99.90
19968;DHT22;10145;49.152;9.282;2023-05-10T13:31:23;18.90;99.80
19968;DHT22;10145;49.152;9.282;2023-05-10T13:33:49;18.80;99.90
19968;DHT22;10145;49.152;9.282;2023-05-10T13:36:14;19.10;99.90
19968;DHT22;10145;49.152;9.282;2023-05-10T13:38:40;19.70;99.90
19968;DHT22;10145;49.152;9.282;2023-05-10T13:41:05;20.20;99.90
19968;DHT22;10145;49.152;9.282;2023-05-10T13:43:31;20.60;99.20
19968;DHT22;10145;49.152;9.282;2023-05-10T13:45:56;20.60;98.40
19968;DHT22;10145;49.152;9.282;2023-05-10T13:48:22;20.70;96.90
19968;DHT22;10145;49.152;9.282;2023-05-10T13:50:48;20.40;97.40
19968;DHT22;10145;49.152;9.282;2023-05-10T13:53:13;20.10;97.40
19968;DHT22;10145;49.152;9.282;2023-05-10T13:55:39;19.90;97.30
19968;DHT22;10145;49.152;9.282;2023-05-10T13:58:05;20.10;96.70
19968;DHT22;10145;49.152;9.282;2023-05-10T14:00:30;20.20;94.70
19968;DHT22;10145;49.152;9.282;2023-05-10T14:02:56;20.50;94.80
19968;DHT22;10145;49.152;9.282;2023-05-10T14:05:21;20.80;93.60
19968;DHT22;10145;49.152;9.282;2023-05-10T14:07:49;20.30;93.20
19968;DHT22;10145;49.152;9.282;2023-05-10T14:10:15;20.00;93.30
19968;DHT22;10145;49.152;9.282;2023-05-10T14:12:41;20.50;93.80
19968;DHT22;10145;49.152;9.282;2023-05-10T14:15:07;20.30;92.50
19968;DHT22;10145;49.152;9.282;2023-05-10T14:17:33;20.00;93.70
19968;DHT22;10145;49.152;9.282;2023-05-10T14:19:58;19.80;93.80
19968;DHT22;10145;49.152;9.282;2023-05-10T14:22:24;20.00;92.50
19968;DHT22;10145;49.152;9.282;2023-05-10T14:24:49;20.10;92.50
19968;DHT22;10145;49.152;9.282;2023-05-10T14:27:15;19.90;91.90
19968;DHT22;10145;49.152;9.282;2023-05-10T14:29:41;19.40;92.40
19968;DHT22;10145;49.152;9.282;2023-05-10T14:32:07;19.20;92.60
19968;DHT22;10145;49.152;9.282;2023-05-10T14:34:32;18.60;93.30
19968;DHT22;10145;49.152;9.282;2023-05-10T14:36:58;18.50;92.80
19968;DHT22;10145;49.152;9.282;2023-05-10T14:39:24;18.50;93.30
19968;DHT22;10145;49.152;9.282;2023-05-10T14:41:50;18.60;92.60
19968;DHT22;10145;49.152;9.282;2023-05-10T14:44:16;18.80;92.50
19968;DHT22;10145;49.152;9.282;2023-05-10T14:46:42;19.20;94.10
19968;DHT22;10145;49.152;9.282;2023-05-10T14:49:07;19.50;92.80
19968;DHT22;10145;49.152;9.282;2023-05-10T14:51:33;19.60;92.80
19968;DHT22;10145;49.152;9.282;2023-05-10T14:53:59;19.40;91.60
19968;DHT22;10145;49.152;9.282;2023-05-10T14:56:24;19.30;91.00
19968;DHT22;10145;49.152;9.282;2023-05-10T14:58:51;19.20;91.70
19968;DHT22;10145;49.152;9.282;2023-05-10T15:01:16;19.30;92.50
19968;DHT22;10145;49.152;9.282;2023-05-10T15:03:42;19.30;92.20
19968;DHT22;10145;49.152;9.282;2023-05-10T15:06:08;19.30;92.80
19968;DHT22;10145;49.152;9.282;2023-05-10T15:08:34;19.10;92.40
19968;DHT22;10145;49.152;9.282;2023-05-10T15:10:59;19.30;92.50
19968;DHT22;10145;49.152;9.282;2023-05-10T15:13:25;19.40;93.70
19968;DHT22;10145;49.152;9.282;2023-05-10T15:15:51;19.50;92.20
19968;DHT22;10145;49.152;9.282;2023-05-10T15:18:24;19.70;93.30
19968;DHT22;10145;49.152;9.282;2023-05-10T15:20:50;20.00;92.00
19968;DHT22;10145;49.152;9.282;2023-05-10T15:23:15;20.10;92.50
19968;DHT22;10145;49.152;9.282;2023-05-10T15:25:41;20.10;92.00
19968;DHT22;10145;49.152;9.282;2023-05-10T15:28:06;19.90;90.10
19968;DHT22;10145;49.152;9.282;2023-05-10T15:30:32;19.90;93.00
19968;DHT22;10145;49.152;9.282;2023-05-10T15:32:57;20.00;91.50
19968;DHT22;10145;49.152;9.282;2023-05-10T15:35:23;19.80;91.00
19968;DHT22;10145;49.152;9.282;2023-05-10T15:37:49;19.60;91.50
19968;DHT22;10145;49.152;9.282;2023-05-10T15:40:15;19.90;91.80
19968;DHT22;10145;49.152;9.282;2023-05-10T15:42:40;19.80;91.80
19968;DHT22;10145;49.152;9.282;2023-05-10T15:45:06;19.60;92.30
19968;DHT22;10145;49.152;9.282;2023-05-10T15:47:32;19.70;91.00
19968;DHT22;10145;49.152;9.282;2023-05-10T15:49:58;19.70;91.90
19968;DHT22;10145;49.152;9.282;2023-05-10T15:52:23;19.70;92.10
19968;DHT22;10145;49.152;9.282;2023-05-10T15:54:49;19.50;91.50
19968;DHT22;10145;49.152;9.282;2023-05-10T15:57:15;19.50;91.20
19968;DHT22;10145;49.152;9.282;2023-05-10T15:59:41;19.30;90.40
19968;DHT22;10145;49.152;9.282;2023-05-10T16:02:08;19.20;90.20